createdAt,value
2019-02-04T00:00:15.589Z,2.8
2019-02-04T00:03:15.217Z,2.8
2019-02-04T00:06:15.807Z,2.8
2019-02-04T00:09:15.313Z,2.8
2019-02-04T00:12:15.897Z,2.8
2019-02-04T00:15:15.464Z,2.7
2019-02-04T00:18:15.186Z,2.7
2019-02-04T00:21:15.556Z,2.7
2019-02-04T00:24:15.073Z,2.7
2019-02-04T00:27:15.047Z,2.7
2019-02-04T00:30:15.553Z,2.6
2019-02-04T00:33:15.314Z,2.7
2019-02-04T00:36:15.072Z,2.7
2019-02-04T00:39:15.639Z,2.7
2019-02-04T00:42:15.280Z,2.7
2019-02-04T00:45:15.868Z,2.7
2019-02-04T00:48:15.406Z,2.7
2019-02-04T00:51:15.899Z,2.7
2019-02-04T00:54:15.502Z,2.7
2019-02-04T00:57:14.995Z,2.7
2019-02-04T01:00:15.081Z,2.7
2019-02-04T01:03:15.169Z,2.7
2019-02-04T01:06:15.147Z,2.6
2019-02-04T01:09:15.729Z,2.6
2019-02-04T01:12:15.373Z,2.6
2019-02-04T01:15:15.105Z,2.6
2019-02-04T01:18:14.930Z,2.5
2019-02-04T01:21:15.563Z,2.5
2019-02-04T01:24:15.577Z,2.5
2019-02-04T01:27:15.140Z,2.4
2019-02-04T01:30:14.998Z,2.4
2019-02-04T01:33:15.069Z,2.4
2019-02-04T01:36:15.402Z,2.4
2019-02-04T01:39:15.130Z,2.4
2019-02-04T01:42:15.627Z,2.4
2019-02-04T01:45:15.120Z,2.4
2019-02-04T01:48:15.722Z,2.3
2019-02-04T01:51:15.209Z,2.3
2019-02-04T01:54:15.901Z,2.3
2019-02-04T01:57:15.600Z,2.3
2019-02-04T02:00:15.234Z,2.2
2019-02-04T02:03:15.439Z,2.2
2019-02-04T02:06:14.999Z,2.2
2019-02-04T02:09:15.547Z,2.2
2019-02-04T02:12:15.047Z,2.2
2019-02-04T02:15:15.556Z,2.2
2019-02-04T02:18:15.252Z,2.2
2019-02-04T02:21:15.687Z,2.2
2019-02-04T02:24:15.256Z,2.2
2019-02-04T02:27:15.369Z,2.2
2019-02-04T02:30:14.956Z,2.2
2019-02-04T02:33:15.062Z,2.1
2019-02-04T02:36:15.709Z,2.1
2019-02-04T02:39:15.268Z,2.0
2019-02-04T02:42:15.942Z,1.9
2019-02-04T02:45:15.642Z,1.8
2019-02-04T02:48:15.358Z,1.8
2019-02-04T02:51:15.923Z,1.8
2019-02-04T02:54:15.490Z,1.8
2019-02-04T02:57:15.403Z,1.8
2019-02-04T03:00:15.045Z,1.8
2019-02-04T03:03:15.361Z,1.8
2019-02-04T03:06:15.487Z,1.8
2019-02-04T03:09:14.958Z,1.8
2019-02-04T03:12:15.641Z,1.8
2019-02-04T03:15:15.273Z,1.8
2019-02-04T03:18:15.024Z,1.8
2019-02-04T03:21:15.509Z,1.8
2019-02-04T03:24:15.186Z,1.8
2019-02-04T03:27:15.733Z,1.8
2019-02-04T03:30:15.490Z,1.8
2019-02-04T03:33:15.799Z,1.8
2019-02-04T03:36:15.612Z,1.7
2019-02-04T03:39:15.272Z,1.7
2019-02-04T03:42:15.003Z,1.7
2019-02-04T03:45:15.463Z,1.8
2019-02-04T03:48:15.039Z,1.8
2019-02-04T03:51:15.509Z,1.8
2019-02-04T03:54:15.503Z,1.8
2019-02-04T03:57:15.024Z,1.8
2019-02-04T04:00:14.967Z,1.7
2019-02-04T04:03:15.213Z,1.7
2019-02-04T04:06:15.848Z,1.7
2019-02-04T04:09:15.557Z,1.6
2019-02-04T04:12:15.139Z,1.6
2019-02-04T04:15:15.705Z,1.6
2019-02-04T04:18:16.317Z,1.6
2019-02-04T04:21:15.945Z,1.6
2019-02-04T04:24:15.814Z,1.6
2019-02-04T04:27:15.284Z,1.5
2019-02-04T04:30:15.865Z,1.5
2019-02-04T04:33:15.067Z,1.4
2019-02-04T04:36:15.669Z,1.4
2019-02-04T04:39:15.245Z,1.4
2019-02-04T04:42:15.696Z,1.4
2019-02-04T04:45:15.236Z,1.4
2019-02-04T04:48:26.087Z,1.4
2019-02-04T04:51:15.366Z,1.4
2019-02-04T04:54:15.890Z,1.3
2019-02-04T04:57:15.042Z,1.3
2019-02-04T05:00:15.684Z,1.3
2019-02-04T05:03:15.849Z,1.3
2019-02-04T05:06:15.416Z,1.3
2019-02-04T05:09:14.995Z,1.3
2019-02-04T05:12:15.923Z,1.3
2019-02-04T05:15:15.528Z,1.3
2019-02-04T05:18:15.955Z,1.3
2019-02-04T05:21:15.893Z,1.2
2019-02-04T05:24:15.568Z,1.2
2019-02-04T05:27:15.881Z,1.2
2019-02-04T05:30:15.337Z,1.2
2019-02-04T05:33:15.227Z,1.2
2019-02-04T05:36:14.975Z,1.2
2019-02-04T05:39:15.593Z,1.2
2019-02-04T05:42:15.094Z,1.1
2019-02-04T05:45:15.642Z,1.1
2019-02-04T05:48:15.251Z,1.1
2019-02-04T05:51:15.799Z,1.0
2019-02-04T05:54:15.646Z,1.0
2019-02-04T05:57:15.198Z,1.0
2019-02-04T06:00:15.730Z,1.0
2019-02-04T06:03:15.929Z,1.0
2019-02-04T06:06:15.283Z,1.1
2019-02-04T06:09:15.926Z,1.1
2019-02-04T06:12:15.498Z,1.1
2019-02-04T06:15:15.164Z,1.1
2019-02-04T06:18:15.115Z,1.1
2019-02-04T06:21:15.700Z,1.1
2019-02-04T06:24:15.818Z,1.1
2019-02-04T06:27:15.544Z,1.1
2019-02-04T06:30:15.457Z,1.1
2019-02-04T06:33:15.043Z,1.1
2019-02-04T06:36:15.553Z,1.1
2019-02-04T06:39:15.701Z,1.1
2019-02-04T06:42:15.674Z,1.1
2019-02-04T06:45:15.617Z,1.1
2019-02-04T06:48:15.292Z,1.0
2019-02-04T06:51:16.056Z,1.0
2019-02-04T06:54:15.451Z,1.0
2019-02-04T06:57:15.005Z,1.0
2019-02-04T07:00:15.699Z,1.0
2019-02-04T07:03:15.334Z,1.0
2019-02-04T07:06:14.980Z,1.0
2019-02-04T07:09:15.113Z,1.0
2019-02-04T07:12:15.745Z,1.1
2019-02-04T07:15:15.180Z,1.1
2019-02-04T07:18:15.478Z,1.2
2019-02-04T07:21:15.184Z,1.2
2019-02-04T07:24:15.020Z,1.4
2019-02-04T07:27:15.497Z,1.5
2019-02-04T07:30:15.347Z,1.6
2019-02-04T07:33:15.780Z,1.8
2019-02-04T07:36:15.301Z,1.9
2019-02-04T07:39:15.806Z,2.0
2019-02-04T07:42:15.374Z,2.1
2019-02-04T07:45:15.084Z,2.2
2019-02-04T07:48:15.827Z,2.4
2019-02-04T07:51:15.476Z,2.6
2019-02-04T07:54:15.038Z,2.7
2019-02-04T07:57:15.084Z,2.8
2019-02-04T08:00:15.799Z,3.1
2019-02-04T08:03:15.262Z,3.3
2019-02-04T08:06:15.795Z,3.7
2019-02-04T08:09:15.617Z,4.0
2019-02-04T08:12:15.350Z,4.3
2019-02-04T08:15:15.764Z,4.6
2019-02-04T08:18:15.430Z,4.8
2019-02-04T08:21:15.005Z,5.1
2019-02-04T08:24:15.475Z,5.3
2019-02-04T08:27:15.288Z,5.5
2019-02-04T08:30:15.928Z,5.8
2019-02-04T08:33:15.768Z,6.2
2019-02-04T08:36:15.788Z,6.5
2019-02-04T08:39:15.475Z,6.9
2019-02-04T08:42:15.516Z,7.4
2019-02-04T08:45:15.271Z,8.0
2019-02-04T08:48:15.101Z,8.3
2019-02-04T08:51:15.166Z,8.4
2019-02-04T08:54:15.725Z,8.6
2019-02-04T08:57:15.581Z,8.9
2019-02-04T09:00:14.915Z,9.2
2019-02-04T09:03:15.228Z,9.4
2019-02-04T09:06:15.262Z,9.7
2019-02-04T09:09:14.966Z,10.2
2019-02-04T09:12:15.931Z,10.8
2019-02-04T09:15:16.434Z,11.5
2019-02-04T09:18:15.818Z,12.1
2019-02-04T09:21:15.743Z,12.7
2019-02-04T09:24:15.358Z,13.4
2019-02-04T09:27:15.097Z,14.0
2019-02-04T09:30:15.779Z,14.6
2019-02-04T09:33:15.909Z,15.0
2019-02-04T09:36:15.537Z,15.2
2019-02-04T09:39:15.137Z,15.4
2019-02-04T09:42:15.836Z,15.5
2019-02-04T09:45:15.433Z,15.8
2019-02-04T09:48:15.008Z,16.1
2019-02-04T09:51:15.560Z,16.4
2019-02-04T09:54:15.262Z,16.7
2019-02-04T09:57:15.793Z,17.0
2019-02-04T10:00:15.632Z,17.3
2019-02-04T10:03:15.520Z,17.5
2019-02-04T10:06:15.469Z,17.3
2019-02-04T10:09:15.144Z,17.1
2019-02-04T10:12:15.810Z,17.0
2019-02-04T10:15:15.851Z,16.9
2019-02-04T10:18:15.703Z,16.9
2019-02-04T10:21:15.428Z,16.6
2019-02-04T10:24:15.030Z,16.4
2019-02-04T10:27:15.755Z,16.3
2019-02-04T10:30:15.919Z,16.1
2019-02-04T10:33:15.652Z,15.8
2019-02-04T10:36:15.479Z,15.5
2019-02-04T10:39:15.590Z,15.2
2019-02-04T10:42:15.462Z,14.8
2019-02-04T10:45:15.191Z,14.5
2019-02-04T10:48:15.632Z,14.6
2019-02-04T10:51:15.286Z,14.6
2019-02-04T10:54:15.069Z,14.4
2019-02-04T10:57:15.875Z,14.1
2019-02-04T11:00:15.887Z,14.0
2019-02-04T11:03:15.752Z,13.4
2019-02-04T11:06:15.542Z,12.6
2019-02-04T11:09:15.241Z,12.2
2019-02-04T11:12:15.951Z,11.9
2019-02-04T11:15:15.641Z,11.8
2019-02-04T11:18:15.134Z,11.7
2019-02-04T11:21:15.901Z,11.7
2019-02-04T11:24:15.005Z,11.6
2019-02-04T11:27:15.872Z,11.5
2019-02-04T11:30:15.569Z,11.2
2019-02-04T11:33:15.160Z,10.9
2019-02-04T11:36:15.212Z,10.5
2019-02-04T11:39:15.765Z,10.1
2019-02-04T11:42:15.772Z,9.7
2019-02-04T11:45:15.273Z,9.5
2019-02-04T11:48:15.480Z,9.6
2019-02-04T11:51:15.345Z,9.5
2019-02-04T11:54:15.910Z,9.5
2019-02-04T11:57:15.997Z,9.5
2019-02-04T12:00:15.607Z,9.6
2019-02-04T12:03:15.864Z,9.5
2019-02-04T12:06:17.483Z,9.4
2019-02-04T12:09:15.135Z,9.1
2019-02-04T12:12:15.625Z,9.2
2019-02-04T12:15:15.219Z,9.3
2019-02-04T12:18:15.125Z,9.4
2019-02-04T12:21:21.633Z,9.3
2019-02-04T12:24:15.455Z,9.3
2019-02-04T12:27:15.751Z,9.5
2019-02-04T12:30:15.877Z,9.5
2019-02-04T12:33:15.758Z,9.7
2019-02-04T12:36:15.940Z,9.8
2019-02-04T12:39:15.598Z,9.9
2019-02-04T12:42:15.482Z,10.0
2019-02-04T12:45:15.154Z,10.1
2019-02-04T12:48:15.159Z,10.4
2019-02-04T12:51:15.133Z,10.5
2019-02-04T12:54:15.552Z,10.7
2019-02-04T12:57:15.209Z,10.7
2019-02-04T13:00:15.807Z,10.6
2019-02-04T13:03:15.742Z,10.6
2019-02-04T13:06:15.625Z,10.3
2019-02-04T13:09:15.241Z,10.3
2019-02-04T13:12:15.806Z,10.3
2019-02-04T13:15:15.072Z,10.1
2019-02-04T13:18:15.113Z,10.1
2019-02-04T13:21:15.033Z,9.9
2019-02-04T13:24:15.608Z,10.1
2019-02-04T13:27:15.244Z,9.9
2019-02-04T13:30:15.831Z,9.8
2019-02-04T13:33:15.273Z,9.6
2019-02-04T13:36:15.589Z,9.6
2019-02-04T13:39:15.409Z,9.3
2019-02-04T13:42:15.157Z,9.0
2019-02-04T13:45:15.172Z,8.8
2019-02-04T13:48:15.599Z,8.7
2019-02-04T13:51:15.311Z,8.5
2019-02-04T13:54:14.977Z,8.5
2019-02-04T13:57:15.773Z,8.4
2019-02-04T14:00:15.276Z,8.5
2019-02-04T14:03:17.831Z,8.5
2019-02-04T14:06:15.637Z,8.4
2019-02-04T14:09:15.416Z,8.3
2019-02-04T14:12:15.126Z,8.2
2019-02-04T14:15:15.651Z,8.1
2019-02-04T14:18:15.005Z,8.2
2019-02-04T14:21:15.755Z,8.2
2019-02-04T14:24:15.278Z,8.0
2019-02-04T14:27:14.892Z,7.8
2019-02-04T14:30:15.524Z,7.7
2019-02-04T14:33:15.745Z,7.6
2019-02-04T14:36:15.383Z,7.5
2019-02-04T14:39:15.259Z,7.4
2019-02-04T14:42:15.497Z,7.4
2019-02-04T14:45:15.945Z,7.3
2019-02-04T14:48:15.561Z,7.2
2019-02-04T14:51:15.905Z,7.2
2019-02-04T14:54:15.593Z,7.1
2019-02-04T14:57:15.877Z,7.0
2019-02-04T15:00:15.082Z,6.9
2019-02-04T15:03:19.755Z,6.8
2019-02-04T15:06:15.491Z,6.8
2019-02-04T15:09:15.105Z,6.8
2019-02-04T15:12:15.716Z,6.8
2019-02-04T15:15:15.712Z,6.7
2019-02-04T15:18:15.538Z,6.7
2019-02-04T15:21:15.186Z,6.6
2019-02-04T15:24:15.876Z,6.6
2019-02-04T15:27:14.859Z,6.5
2019-02-04T15:30:15.012Z,6.5
2019-02-04T15:33:15.312Z,6.5
2019-02-04T15:36:15.033Z,6.4
2019-02-04T15:39:14.855Z,6.4
2019-02-04T15:42:15.183Z,6.4
2019-02-04T15:45:15.156Z,6.4
2019-02-04T15:48:15.384Z,6.3
2019-02-04T15:51:15.426Z,6.3
2019-02-04T15:54:15.620Z,6.4
2019-02-04T15:57:15.922Z,6.3
2019-02-04T16:00:15.496Z,6.2
2019-02-04T16:03:15.391Z,6.2
2019-02-04T16:06:15.295Z,6.1
2019-02-04T16:09:15.145Z,6.1
2019-02-04T16:12:15.099Z,6.1
2019-02-04T16:15:14.879Z,6.0
2019-02-04T16:18:15.792Z,6.0
2019-02-04T16:21:20.354Z,5.9
2019-02-04T16:24:15.941Z,5.9
2019-02-04T16:27:14.972Z,5.8
2019-02-04T16:30:15.599Z,5.8
2019-02-04T16:33:15.608Z,5.7
2019-02-04T16:36:15.823Z,5.7
2019-02-04T16:39:15.632Z,5.6
2019-02-04T16:42:15.284Z,5.6
2019-02-04T16:45:15.766Z,5.5
2019-02-04T16:48:15.489Z,5.4
2019-02-04T16:51:15.318Z,5.4
2019-02-04T16:54:16.030Z,5.4
2019-02-04T16:57:15.187Z,5.3
2019-02-04T17:00:15.019Z,5.3
2019-02-04T17:03:15.456Z,5.3
2019-02-04T17:06:15.347Z,5.3
2019-02-04T17:09:14.940Z,5.2
2019-02-04T17:12:15.327Z,5.2
2019-02-04T17:15:15.009Z,5.1
2019-02-04T17:18:15.040Z,5.1
2019-02-04T17:21:15.786Z,5.1
2019-02-04T17:24:15.358Z,5.1
2019-02-04T17:27:15.275Z,5.1
2019-02-04T17:30:15.785Z,5.2
2019-02-04T17:33:14.936Z,5.2
2019-02-04T17:36:15.736Z,5.2
2019-02-04T17:39:15.450Z,5.2
2019-02-04T17:42:15.044Z,5.2
2019-02-04T17:45:15.960Z,5.2
2019-02-04T17:48:15.684Z,5.1
2019-02-04T17:51:15.033Z,5.2
2019-02-04T17:54:15.387Z,5.2
2019-02-04T17:57:15.362Z,5.2
2019-02-04T18:00:15.061Z,5.2
2019-02-04T18:03:15.492Z,5.1
2019-02-04T18:06:15.611Z,5.1
2019-02-04T18:09:15.157Z,5.0
2019-02-04T18:12:15.977Z,5.0
2019-02-04T18:15:15.468Z,4.9
2019-02-04T18:18:15.345Z,4.9
2019-02-04T18:21:15.080Z,4.9
2019-02-04T18:24:15.547Z,4.8
2019-02-04T18:27:15.810Z,4.8
2019-02-04T18:30:15.382Z,4.8
2019-02-04T18:33:15.170Z,4.7
2019-02-04T18:36:15.931Z,4.7
2019-02-04T18:39:15.087Z,4.6
2019-02-04T18:42:15.843Z,4.5
2019-02-04T18:45:15.880Z,4.5
2019-02-04T18:48:15.438Z,4.4
2019-02-04T18:51:15.597Z,4.4
2019-02-04T18:54:15.324Z,4.4
2019-02-04T18:57:14.911Z,4.4
2019-02-04T19:00:15.747Z,4.4
2019-02-04T19:03:17.582Z,4.4
2019-02-04T19:06:15.447Z,4.4
2019-02-04T19:09:16.864Z,4.3
2019-02-04T19:12:15.918Z,4.3
2019-02-04T19:15:15.862Z,4.3
2019-02-04T19:18:18.493Z,4.3
2019-02-04T19:21:15.622Z,4.3
2019-02-04T19:24:16.452Z,4.3
2019-02-04T19:27:15.370Z,4.3
2019-02-04T19:30:20.914Z,4.3
2019-02-04T19:33:15.776Z,4.3
2019-02-04T19:36:18.484Z,4.3
2019-02-04T19:39:15.316Z,4.3
2019-02-04T19:42:17.728Z,4.3
2019-02-04T19:45:15.701Z,4.2
2019-02-04T19:48:15.041Z,4.2
2019-02-04T19:51:15.414Z,4.1
2019-02-04T19:54:21.593Z,4.1
2019-02-04T19:57:15.136Z,4.0
2019-02-04T20:00:15.842Z,3.9
2019-02-04T20:03:15.466Z,3.8
2019-02-04T20:06:15.102Z,3.8
2019-02-04T20:09:15.835Z,3.8
2019-02-04T20:12:14.999Z,3.8
2019-02-04T20:15:15.623Z,3.8
2019-02-04T20:18:15.366Z,3.8
2019-02-04T20:21:15.273Z,3.8
2019-02-04T20:24:32.927Z,3.8
2019-02-04T20:27:15.197Z,3.7
2019-02-04T20:30:15.924Z,3.7
2019-02-04T20:33:16.252Z,3.7
2019-02-04T20:36:15.281Z,3.8
2019-02-04T20:39:17.181Z,3.8
2019-02-04T20:42:16.144Z,3.9
2019-02-04T20:45:16.886Z,3.9
2019-02-04T20:48:16.132Z,3.9
2019-02-04T20:51:15.355Z,4.0
2019-02-04T20:54:19.825Z,4.0
2019-02-04T20:57:15.793Z,4.1
2019-02-04T21:00:15.754Z,4.1
2019-02-04T21:03:15.772Z,4.1
2019-02-04T21:06:15.348Z,4.1
2019-02-04T21:09:15.884Z,4.1
2019-02-04T21:12:16.910Z,4.1
2019-02-04T21:15:15.871Z,4.2
2019-02-04T21:18:15.686Z,4.3
2019-02-04T21:21:15.307Z,4.4
2019-02-04T21:24:15.475Z,4.4
2019-02-04T21:27:15.160Z,4.5
2019-02-04T21:30:15.643Z,4.5
2019-02-04T21:33:15.568Z,4.6
2019-02-04T21:36:15.632Z,4.5
2019-02-04T21:39:15.799Z,4.3
2019-02-04T21:42:14.989Z,4.1
2019-02-04T21:45:15.395Z,4.0
2019-02-04T21:48:18.773Z,3.9
2019-02-04T21:51:17.155Z,3.9
2019-02-04T21:54:16.909Z,4.0
2019-02-04T21:57:16.795Z,4.1
2019-02-04T22:00:20.026Z,4.3
2019-02-04T22:03:20.261Z,4.3
2019-02-04T22:06:15.686Z,4.4
2019-02-04T22:09:16.674Z,4.5
2019-02-04T22:12:18.907Z,4.6
2019-02-04T22:15:21.886Z,4.6
2019-02-04T22:18:23.680Z,4.7
2019-02-04T22:21:26.030Z,4.7
2019-02-04T22:24:24.401Z,4.8
2019-02-04T22:27:34.094Z,4.8
2019-02-04T22:30:27.297Z,4.8
2019-02-04T22:33:31.261Z,4.9
2019-02-04T22:36:39.079Z,4.9
2019-02-04T22:39:31.144Z,4.9
2019-02-04T22:42:27.035Z,4.9
2019-02-04T22:46:46.641Z,4.9
2019-02-04T22:49:09.193Z,4.8
2019-02-04T22:51:26.039Z,4.7
2019-02-04T22:54:41.724Z,4.7
2019-02-04T23:03:29.560Z,4.7
2019-02-04T23:06:39.323Z,4.7
2019-02-04T23:16:04.211Z,4.8
2019-02-04T23:18:46.552Z,4.8
2019-02-04T23:24:40.568Z,4.8
2019-02-04T23:28:44.225Z,4.9
2019-02-04T23:28:54.875Z,4.9
2019-02-04T23:29:21.062Z,4.9
2019-02-04T23:30:20.996Z,4.9
2019-02-04T23:33:21.672Z,4.9
2019-02-04T23:36:18.943Z,5.0
2019-02-04T23:39:19.557Z,5.0
2019-02-04T23:42:16.144Z,5.0
2019-02-04T23:45:17.005Z,5.0
2019-02-04T23:48:17.054Z,5.0
2019-02-04T23:51:18.036Z,5.0
2019-02-04T23:54:19.820Z,5.0
2019-02-04T23:57:18.490Z,5.0
